Time;durP1;ratioP1;P1;durP2;ratioP2;P2;SDS_P1;SDS_P2;PMS_P1;PMS_P2;Temp;Humidity;BMP_temperature;BMP_pressure;BME280_temperature;BME280_humidity;BME280_pressure;Samples;Min_cycle;Max_cycle;Signal;HPM_P1;HPM_P2
2021/07/20 00:38:15;;;;;;;348.33;335.90;;;12.40;99.90;;;;;;3324532;26;20525;-86
2021/07/20 01:04:42;;;;;;;;;;;;;;;;;;;;;
2021/07/20 01:40:04;;;;;;;;;;;;;;;;;;;;;
2021/07/20 01:50:01;;;;;;;424.60;408.97;;;11.70;99.90;;;;;;4820398;29;20486;-89
2021/07/20 01:53:06;;;;;;;421.77;405.03;;;11.60;99.90;;;;;;4785842;29;20583;-87
2021/07/20 01:56:28;;;;;;;416.27;399.87;;;11.50;99.90;;;;;;4903604;29;20472;-88
2021/07/20 01:59:33;;;;;;;393.50;376.97;;;11.50;99.90;;;;;;4899189;29;20485;-89
2021/07/20 02:02:48;;;;;;;407.67;390.67;;;11.60;99.90;;;;;;4869455;29;20835;-86
2021/07/20 02:15:51;;;;;;;369.17;353.40;;;11.40;99.90;;;;;;4899371;29;20461;-87
2021/07/20 02:19:12;;;;;;;368.93;353.33;;;11.50;99.90;;;;;;4955047;28;20459;-88
2021/07/20 02:28:49;;;;;;;369.23;354.00;;;11.30;99.90;;;;;;4892287;29;20462;-88
2021/07/20 02:41:55;;;;;;;403.10;386.17;;;11.20;99.90;;;;;;4914653;29;20490;-88
2021/07/20 02:48:31;;;;;;;438.93;420.67;;;11.10;99.90;;;;;;4895222;29;20455;-87
2021/07/20 03:10:52;;;;;;;392.13;376.67;;;10.90;99.90;;;;;;4949101;28;20456;-87
2021/07/20 03:14:05;;;;;;;;;;;;;;;;;;;;;
2021/07/20 03:17:49;;;;;;;396.63;380.30;;;10.90;99.90;;;;;;4778678;29;20467;-87
2021/07/20 03:21:14;;;;;;;365.27;350.77;;;10.80;99.90;;;;;;4792398;29;20463;-89
2021/07/20 03:24:00;;;;;;;376.00;359.07;;;10.90;99.90;;;;;;4818861;29;20470;-88
2021/07/20 03:30:31;;;;;;;;;;;;;;;;;;;;;
2021/07/20 03:33:58;;;;;;;;;;;;;;;;;;;;;
2021/07/20 03:40:07;;;;;;;304.47;291.13;;;10.90;99.90;;;;;;4801131;29;20505;-88
2021/07/20 03:53:19;;;;;;;;;;;;;;;;;;;;;
2021/07/20 04:26:54;;;;;;;401.83;385.50;;;11.40;99.90;;;;;;4780536;29;20472;-87
2021/07/20 04:30:02;;;;;;;402.90;386.77;;;11.40;99.90;;;;;;4855257;29;20969;-88
2021/07/20 04:39:13;;;;;;;377.90;361.73;;;11.60;99.90;;;;;;4804994;29;20593;-87
2021/07/20 05:38:44;;;;;;;139.97;130.97;;;13.70;99.90;;;;;;5879654;23;20467;-81
2021/07/20 05:41:13;;;;;;;53.63;45.83;;;14.00;99.90;;;;;;6193418;23;20476;-83
2021/07/20 05:43:41;;;;;;;43.43;32.47;;;14.20;99.90;;;;;;6202465;23;20456;-82
2021/07/20 05:46:09;;;;;;;43.07;25.33;;;14.40;96.10;;;;;;6203740;23;20424;-81
2021/07/20 05:48:37;;;;;;;44.73;16.43;;;14.60;92.90;;;;;;6203623;23;20744;-81
2021/07/20 05:51:05;;;;;;;45.63;17.20;;;14.70;90.10;;;;;;6203977;23;20452;-81
2021/07/20 05:53:33;;;;;;;50.67;19.67;;;14.90;88.50;;;;;;6193383;23;20401;-83
2021/07/20 05:56:04;;;;;;;39.97;13.57;;;15.10;85.10;;;;;;6203905;23;20728;-81
2021/07/20 05:58:32;;;;;;;41.10;11.93;;;15.20;76.20;;;;;;6202494;23;20408;-81
2021/07/20 06:01:02;;;;;;;44.40;11.70;;;15.50;75.80;;;;;;6203541;23;20471;-81
2021/07/20 06:03:32;;;;;;;44.13;14.97;;;15.70;75.50;;;;;;6203546;23;20888;-82
2021/07/20 06:05:59;;;;;;;50.70;14.00;;;15.70;73.70;;;;;;6203536;23;20411;-83
2021/07/20 06:08:28;;;;;;;42.20;13.00;;;15.90;72.90;;;;;;6203464;23;20414;-81
2021/07/20 06:10:57;;;;;;;44.87;13.17;;;15.80;67.50;;;;;;6201460;23;20448;-81
2021/07/20 06:13:27;;;;;;;44.80;13.93;;;15.90;66.40;;;;;;6185404;23;20445;-82
2021/07/20 06:15:55;;;;;;;46.43;13.83;;;16.00;67.20;;;;;;6187011;23;20436;-82
2021/07/20 06:18:22;;;;;;;48.33;14.73;;;16.00;66.50;;;;;;6186835;23;20399;-82
2021/07/20 06:20:54;;;;;;;51.17;13.90;;;16.10;65.70;;;;;;6186778;23;20872;-82
2021/07/20 06:23:22;;;;;;;48.67;11.63;;;16.40;66.70;;;;;;6186109;23;20424;-81
2021/07/20 06:25:50;;;;;;;44.93;12.33;;;16.60;60.40;;;;;;6197032;23;20413;-80
2021/07/20 06:28:17;;;;;;;46.30;12.90;;;16.70;59.00;;;;;;6185482;23;20402;-81
2021/07/20 06:30:47;;;;;;;53.93;15.20;;;16.70;58.80;;;;;;6196265;23;20444;-81
2021/07/20 06:33:14;;;;;;;50.57;13.80;;;16.70;55.00;;;;;;6196335;23;20413;-81
2021/07/20 06:35:43;;;;;;;49.83;13.53;;;16.70;57.30;;;;;;6184366;23;20408;-81
2021/07/20 06:38:15;;;;;;;52.17;12.10;;;16.80;55.40;;;;;;6194929;23;20894;-81
2021/07/20 06:40:44;;;;;;;51.57;13.03;;;17.00;55.20;;;;;;6184735;23;20409;-81
2021/07/20 06:43:12;;;;;;;49.13;14.93;;;17.10;54.90;;;;;;6193242;23;20417;-82
2021/07/20 06:45:41;;;;;;;50.93;11.23;;;17.10;51.80;;;;;;6194614;23;20468;-81
2021/07/20 06:48:13;;;;;;;49.30;12.50;;;17.10;50.50;;;;;;6185083;23;20401;-81
2021/07/20 06:50:41;;;;;;;49.97;13.80;;;17.30;52.70;;;;;;6185036;23;20468;-81
2021/07/20 06:53:08;;;;;;;51.93;14.40;;;17.50;50.90;;;;;;6184817;23;20436;-82
2021/07/20 06:55:38;;;;;;;51.80;12.77;;;17.50;50.90;;;;;;6194891;23;20440;-81
2021/07/20 06:58:07;;;;;;;48.83;11.70;;;17.60;48.40;;;;;;6183218;23;20444;-82
2021/07/20 07:00:34;;;;;;;51.70;15.10;;;17.90;49.00;;;;;;6184680;23;20401;-81
2021/07/20 07:03:04;;;;;;;46.90;12.10;;;18.20;48.40;;;;;;6194700;23;20792;-81
2021/07/20 07:05:33;;;;;;;52.97;15.03;;;18.30;45.60;;;;;;6184763;23;20397;-83
2021/07/20 07:08:06;;;;;;;52.10;15.47;;;18.30;46.50;;;;;;6184636;23;20952;-80
2021/07/20 07:10:35;;;;;;;52.83;13.47;;;18.50;42.90;;;;;;6194561;23;20532;-82
2021/07/20 07:13:06;;;;;;;52.40;13.57;;;18.30;41.70;;;;;;6184750;23;20476;-81
2021/07/20 09:52:13;;;;;;;58.03;11.40;;;23.60;8.80;;;;;;5090397;27;20316;-74
2021/07/20 09:55:15;;;;;;;55.77;12.07;;;23.90;4.40;;;;;;5090557;28;20450;-85
2021/07/20 09:57:50;;;;;;;58.47;13.63;;;23.80;4.40;;;;;;5090622;28;20441;-77
2021/07/20 10:00:20;;;;;;;55.40;11.50;;;23.40;7.00;;;;;;5090018;28;20816;-77
2021/07/20 10:03:04;;;;;;;52.97;9.60;;;23.50;7.10;;;;;;5090096;28;20449;-76
2021/07/20 10:05:37;;;;;;;49.13;8.20;;;23.90;4.50;;;;;;5090061;28;20461;-78
2021/07/20 10:08:15;;;;;;;45.10;10.97;;;24.40;1.00;;;;;;5089757;28;20452;-78
2021/07/20 10:10:48;;;;;;;51.60;9.50;;;25.00;1.00;;;;;;5089790;28;20505;-79
2021/07/20 10:13:30;;;;;;;51.77;11.60;;;25.80;3.10;;;;;;5088569;28;21138;-75
2021/07/20 10:16:08;;;;;;;55.70;15.27;;;24.90;2.10;;;;;;5089861;28;20446;-78
2021/07/20 10:18:42;;;;;;;53.80;12.50;;;23.60;4.00;;;;;;5089626;28;20990;-76
2021/07/20 10:21:14;;;;;;;50.23;13.60;;;22.70;6.50;;;;;;5089743;28;20867;-76
2021/07/20 10:23:49;;;;;;;52.30;9.93;;;23.00;6.40;;;;;;5089710;28;20454;-78
2021/07/20 10:26:20;;;;;;;44.20;9.40;;;22.90;6.60;;;;;;5089509;28;20460;-77
2021/07/20 10:28:56;;;;;;;46.23;8.40;;;23.70;2.70;;;;;;5088294;28;21014;-79
2021/07/20 10:31:28;;;;;;;53.07;9.87;;;24.10;1.20;;;;;;5089322;28;20883;-79
2021/07/20 10:34:01;;;;;;;50.40;10.20;;;24.80;2.10;;;;;;5089578;28;20449;-79
2021/07/20 10:36:30;;;;;;;49.80;11.00;;;25.90;1.30;;;;;;5089455;28;20812;-83
2021/07/20 10:39:04;;;;;;;52.37;11.67;;;25.50;1.00;;;;;;5089376;28;20450;-80
2021/07/20 10:41:39;;;;;;;60.40;13.50;;;24.20;1.00;;;;;;5089237;28;20445;-80
2021/07/20 10:44:13;;;;;;;51.07;11.10;;;23.70;3.20;;;;;;5088021;28;20514;-79
2021/07/20 10:46:41;;;;;;;54.07;9.87;;;23.60;4.00;;;;;;5089064;28;20446;-79
2021/07/20 10:49:23;;;;;;;46.40;10.10;;;24.20;5.00;;;;;;5089125;28;20432;-79
2021/07/20 10:51:56;;;;;;;47.90;8.70;;;24.50;1.00;;;;;;5079889;28;20960;-79
2021/07/20 10:54:27;;;;;;;47.83;9.47;;;25.70;1.00;;;;;;5075661;28;20454;-80
2021/07/20 10:56:58;;;;;;;51.17;9.07;;;26.90;1.00;;;;;;5075618;28;20457;-81
2021/07/20 10:59:50;;;;;;;53.17;9.20;;;27.70;1.00;;;;;;5074127;28;20500;-83
2021/07/20 11:02:28;;;;;;;55.77;10.80;;;29.00;1.00;;;;;;5075274;28;20521;-80
2021/07/20 11:04:58;;;;;;;58.77;12.00;;;28.80;1.00;;;;;;5075480;28;20552;-82
2021/07/20 11:07:29;;;;;;;58.63;12.47;;;27.10;1.00;;;;;;5075380;28;20456;-80
2021/07/20 11:10:06;;;;;;;56.50;11.97;;;25.90;1.00;;;;;;5075233;28;20466;-81
2021/07/20 11:12:38;;;;;;;55.90;12.13;;;25.60;1.00;;;;;;5075274;28;20482;-80
2021/07/20 11:15:06;;;;;;;61.20;13.20;;;24.70;1.00;;;;;;5074076;28;20464;-80
2021/07/20 11:17:34;;;;;;;54.67;10.30;;;24.00;1.00;;;;;;5075365;28;20446;-79
2021/07/20 11:20:06;;;;;;;54.00;15.20;;;25.10;1.00;;;;;;5075085;28;20452;-80
2021/07/20 11:22:34;;;;;;;52.77;9.50;;;24.90;1.00;;;;;;5075378;28;20447;-79
2021/07/20 11:25:02;;;;;;;53.43;9.90;;;25.40;1.00;;;;;;5075109;28;20968;-83
2021/07/20 11:27:29;;;;;;;57.67;10.93;;;25.80;1.00;;;;;;5074900;28;20846;-80
2021/07/20 11:29:58;;;;;;;51.30;9.60;;;25.80;1.00;;;;;;5073763;28;20454;-82
2021/07/20 11:32:31;;;;;;;57.50;15.67;;;25.40;1.00;;;;;;5074934;28;20960;-81
2021/07/20 11:35:02;;;;;;;58.13;16.13;;;25.50;1.00;;;;;;5074888;28;20454;-81
2021/07/20 11:37:32;;;;;;;53.30;9.90;;;25.60;1.00;;;;;;5074831;28;20480;-79
2021/07/20 11:40:04;;;;;;;52.47;9.83;;;25.10;1.00;;;;;;5074789;28;20482;-82
2021/07/20 11:42:44;;;;;;;54.83;10.13;;;25.20;1.00;;;;;;5074584;28;20450;-80
2021/07/20 11:45:45;;;;;;;51.43;8.70;;;25.30;1.00;;;;;;5073918;28;20468;-86
2021/07/20 11:48:26;;;;;;;;;;;;;;;;;;;;;
2021/07/20 11:51:42;;;;;;;54.70;8.97;;;27.40;1.00;;;;;;5029624;28;20476;-83
2021/07/20 11:55:06;;;;;;;51.27;10.10;;;26.30;1.00;;;;;;5041743;28;20455;-84
2021/07/20 11:58:11;;;;;;;49.87;11.00;;;25.90;1.00;;;;;;5074318;28;20478;-84
2021/07/20 12:01:34;;;;;;;48.43;9.03;;;25.20;1.00;;;;;;5074130;28;20919;-85
2021/07/20 12:04:44;;;;;;;;;;;;;;;;;;;;;
2021/07/20 12:07:34;;;;;;;50.90;8.50;;;25.60;1.00;;;;;;5063167;28;20457;-83
2021/07/20 12:10:35;;;;;;;57.37;10.90;;;27.00;1.00;;;;;;5074256;28;20884;-85
2021/07/20 12:13:35;;;;;;;53.03;8.50;;;27.20;1.00;;;;;;5016578;28;20946;-83
2021/07/20 12:16:21;;;;;;;53.93;8.90;;;28.70;1.00;;;;;;5074005;28;20854;-85
2021/07/20 12:18:49;;;;;;;53.37;11.37;;;30.40;1.00;;;;;;5073968;28;20787;-75
2021/07/20 12:29:15;;;;;;;;;;;;;;;;;;;;;
2021/07/20 12:31:44;;;;;;;61.13;21.73;;;31.10;1.00;;;;;;5036251;28;20841;-80
2021/07/20 12:34:11;;;;;;;55.30;14.17;;;30.20;1.00;;;;;;5073623;28;20512;-79
2021/07/20 12:36:38;;;;;;;58.20;13.20;;;29.80;1.00;;;;;;5073496;28;20436;-77
2021/07/20 12:39:12;;;;;;;57.03;12.60;;;29.00;1.00;;;;;;5073565;28;20453;-78
2021/07/20 12:41:43;;;;;;;60.37;14.30;;;29.50;1.00;;;;;;5073504;28;20454;-76
2021/07/20 12:44:10;;;;;;;58.10;13.50;;;29.10;1.00;;;;;;5072242;28;20536;-77
2021/07/20 12:46:40;;;;;;;52.30;9.17;;;30.00;1.00;;;;;;5073333;28;20957;-76
2021/07/20 12:49:10;;;;;;;53.10;14.23;;;29.80;1.00;;;;;;5073343;28;20541;-77
2021/07/20 12:51:47;;;;;;;60.17;14.33;;;28.00;1.00;;;;;;5073112;28;20856;-78
2021/07/20 12:54:14;;;;;;;50.57;10.63;;;28.40;1.00;;;;;;5073249;28;20446;-77
2021/07/20 12:56:41;;;;;;;53.07;12.20;;;28.10;1.00;;;;;;5073368;28;20474;-80
2021/07/20 12:59:08;;;;;;;54.30;12.40;;;28.70;1.00;;;;;;5071694;28;20490;-80
2021/07/20 13:01:36;;;;;;;54.10;14.37;;;29.60;1.00;;;;;;5073235;28;20819;-80
2021/07/20 13:04:04;;;;;;;54.27;11.87;;;29.40;1.00;;;;;;5073433;28;20512;-79
2021/07/20 13:06:36;;;;;;;49.87;8.57;;;27.90;1.00;;;;;;5073293;28;20549;-81
2021/07/20 13:09:05;;;;;;;52.60;11.57;;;27.40;1.00;;;;;;5073205;28;20481;-80
2021/07/20 13:11:37;;;;;;;48.50;8.47;;;28.10;1.00;;;;;;5072959;28;20482;-80
2021/07/20 13:14:05;;;;;;;54.30;13.57;;;28.80;1.00;;;;;;5071462;28;20457;-80
2021/07/20 13:16:34;;;;;;;65.30;11.37;;;28.00;1.00;;;;;;5072990;28;20458;-79
2021/07/20 13:19:03;;;;;;;54.60;12.80;;;26.70;1.00;;;;;;5073217;28;20453;-81
2021/07/20 13:21:29;;;;;;;54.00;11.70;;;25.90;1.00;;;;;;5072999;28;20457;-79
2021/07/20 13:23:58;;;;;;;51.17;12.43;;;26.30;1.00;;;;;;5072938;28;20988;-81
2021/07/20 13:26:27;;;;;;;52.03;10.70;;;27.60;1.00;;;;;;5073020;28;20600;-81
2021/07/20 13:28:55;;;;;;;52.93;10.27;;;28.40;1.00;;;;;;5071709;28;20461;-80
2021/07/20 13:31:29;;;;;;;48.93;9.60;;;29.00;1.00;;;;;;5072967;28;20687;-81
2021/07/20 13:33:56;;;;;;;46.63;7.57;;;28.00;1.00;;;;;;5072856;28;20950;-81
2021/07/20 13:36:24;;;;;;;50.50;10.57;;;28.20;1.00;;;;;;5072983;28;20477;-81
2021/07/20 13:38:52;;;;;;;46.60;7.53;;;28.90;1.00;;;;;;5072984;28;20454;-80
2021/07/20 13:41:22;;;;;;;50.60;10.43;;;28.30;1.00;;;;;;5072988;28;20454;-80
2021/07/20 13:43:51;;;;;;;51.77;11.80;;;27.70;1.00;;;;;;5071629;28;20873;-81
2021/07/20 13:46:20;;;;;;;52.20;9.20;;;28.00;1.00;;;;;;5072671;28;20465;-80
2021/07/20 13:48:48;;;;;;;51.37;11.20;;;27.60;1.00;;;;;;5072709;28;20450;-80
2021/07/20 13:51:16;;;;;;;51.93;8.00;;;27.10;1.00;;;;;;5072309;28;20485;-79
2021/07/20 13:53:47;;;;;;;49.77;7.77;;;28.10;1.00;;;;;;5072855;28;20429;-79
2021/07/20 13:56:18;;;;;;;48.10;6.70;;;27.80;1.00;;;;;;5072671;28;20946;-80
2021/07/20 13:58:48;;;;;;;52.20;12.43;;;28.60;1.00;;;;;;5071367;28;20453;-80
2021/07/20 14:01:17;;;;;;;53.60;10.07;;;27.40;1.00;;;;;;5072666;28;20465;-80
2021/07/20 14:03:46;;;;;;;49.57;10.10;;;27.80;1.00;;;;;;5072613;28;20448;-79
2021/07/20 14:06:43;;;;;;;53.70;13.50;;;27.40;1.00;;;;;;5072787;28;20450;-86
2021/07/20 14:09:54;;;;;;;47.20;10.13;;;27.20;1.00;;;;;;5041602;28;20460;-85
2021/07/20 14:15:46;;;;;;;47.27;10.00;;;27.70;1.00;;;;;;4950343;28;20517;-84
2021/07/20 14:18:54;;;;;;;;;;;;;;;;;;;;;
2021/07/20 14:22:23;;;;;;;;;;;;;;;;;;;;;
2021/07/20 14:24:57;;;;;;;47.47;11.50;;;27.70;1.00;;;;;;5007347;28;20492;-84
2021/07/20 14:27:27;;;;;;;49.90;10.00;;;28.10;1.00;;;;;;5075266;28;20542;-83
2021/07/20 14:29:57;;;;;;;53.00;14.37;;;28.00;1.00;;;;;;5074867;28;21008;-82
2021/07/20 14:32:28;;;;;;;52.30;9.10;;;27.50;1.00;;;;;;5076085;28;20482;-82
2021/07/20 14:34:57;;;;;;;56.90;13.10;;;26.90;1.00;;;;;;5075987;28;20454;-81
2021/07/20 14:37:39;;;;;;;51.77;11.37;;;27.20;1.00;;;;;;5076009;28;20496;-83
2021/07/20 14:40:24;;;;;;;54.40;11.80;;;26.70;1.00;;;;;;5076075;28;20912;-81
2021/07/20 14:42:57;;;;;;;48.27;8.00;;;26.90;1.00;;;;;;5075578;28;20462;-82
2021/07/20 14:45:26;;;;;;;51.70;10.40;;;26.90;1.00;;;;;;5075769;28;20428;-82
2021/07/20 14:48:10;;;;;;;49.57;7.73;;;26.80;1.00;;;;;;5075806;28;20469;-83
2021/07/20 14:51:05;;;;;;;52.07;10.17;;;27.90;1.00;;;;;;5075526;28;21020;-81
2021/07/20 14:53:33;;;;;;;47.70;13.30;;;27.60;1.00;;;;;;5047574;28;20966;-83
2021/07/20 14:56:12;;;;;;;52.30;9.77;;;27.00;1.00;;;;;;5075472;28;20929;-84
2021/07/20 14:58:52;;;;;;;48.43;9.07;;;27.40;1.00;;;;;;5074354;28;20493;-83
2021/07/20 15:01:25;;;;;;;52.40;9.57;;;27.60;1.00;;;;;;5075639;28;20981;-87
2021/07/20 15:03:56;;;;;;;57.00;15.03;;;27.40;1.00;;;;;;5075701;28;20446;-82
2021/07/20 15:07:00;;;;;;;53.50;12.07;;;27.80;1.00;;;;;;5075286;28;20509;-86
2021/07/20 15:09:33;;;;;;;50.43;10.00;;;28.10;1.00;;;;;;5060075;28;20474;-83
2021/07/20 15:12:01;;;;;;;54.77;13.07;;;27.50;1.00;;;;;;5070376;28;20537;-82
2021/07/20 15:14:29;;;;;;;64.55;15.30;;;27.50;1.00;;;;;;5062159;28;20455;-82
2021/07/20 15:17:00;;;;;;;59.33;15.50;;;28.10;1.00;;;;;;5054878;28;20228;-79
2021/07/20 15:19:39;;;;;;;56.23;13.17;;;28.20;1.00;;;;;;5073139;28;20562;-82
2021/07/20 15:22:11;;;;;;;57.03;12.50;;;28.60;1.00;;;;;;5075032;28;20458;-82
2021/07/20 15:24:47;;;;;;;54.60;11.13;;;27.50;1.00;;;;;;5075101;28;20429;-82
2021/07/20 15:27:16;;;;;;;55.17;10.73;;;27.30;1.00;;;;;;5074866;28;20432;-82
2021/07/20 15:29:44;;;;;;;58.00;14.27;;;27.10;1.00;;;;;;5071075;28;20458;-81
2021/07/20 15:32:19;;;;;;;56.40;13.00;;;27.60;1.00;;;;;;5054697;28;20487;-82
2021/07/20 15:34:50;;;;;;;57.90;14.37;;;26.70;1.00;;;;;;5054829;28;20910;-82
2021/07/20 15:37:18;;;;;;;48.80;8.03;;;27.20;1.00;;;;;;5054763;28;20941;-82
2021/07/20 15:39:48;;;;;;;56.97;16.33;;;27.10;1.00;;;;;;5054564;28;20455;-81
2021/07/20 15:42:17;;;;;;;51.87;11.27;;;27.80;1.00;;;;;;5054615;28;20466;-81
2021/07/20 15:44:47;;;;;;;56.60;12.93;;;28.30;1.00;;;;;;5053455;28;20480;-82
2021/07/20 15:47:30;;;;;;;54.77;10.50;;;27.70;1.00;;;;;;5054287;28;20947;-81
2021/07/20 15:49:59;;;;;;;54.80;10.90;;;28.40;1.00;;;;;;5054358;28;20533;-81
2021/07/20 15:52:27;;;;;;;53.33;11.57;;;27.70;1.00;;;;;;5054161;28;20461;-82
2021/07/20 15:54:54;;;;;;;53.07;12.03;;;27.40;1.00;;;;;;5054295;28;20459;-82
2021/07/20 15:57:22;;;;;;;55.03;10.30;;;27.30;1.00;;;;;;5054340;28;20987;-81
2021/07/20 15:59:49;;;;;;;49.43;10.33;;;26.90;1.00;;;;;;5052808;28;20447;-81
2021/07/20 16:02:17;;;;;;;53.63;10.40;;;26.60;1.00;;;;;;5053630;28;20454;-82
2021/07/20 16:04:45;;;;;;;53.80;8.43;;;26.60;1.00;;;;;;5053587;28;20430;-81
2021/07/20 16:07:15;;;;;;;53.00;10.60;;;26.90;1.00;;;;;;5064322;28;20550;-81
2021/07/20 16:09:42;;;;;;;52.50;11.87;;;26.40;1.00;;;;;;5071349;28;20527;-81
2021/07/20 16:12:15;;;;;;;56.53;12.60;;;26.40;1.00;;;;;;5072595;28;20474;-81
2021/07/20 16:14:44;;;;;;;59.80;10.67;;;26.50;1.00;;;;;;5071473;28;20450;-81
2021/07/20 16:17:21;;;;;;;53.33;10.87;;;26.70;1.00;;;;;;5072237;28;20475;-80
2021/07/20 16:19:48;;;;;;;53.17;11.63;;;26.80;1.00;;;;;;5072495;28;20465;-81
2021/07/20 16:22:45;;;;;;;62.93;11.40;;;26.70;1.00;;;;;;5072497;28;20524;-83
2021/07/20 16:28:13;;;;;;;55.47;10.90;;;27.00;1.00;;;;;;5071599;28;20819;-82
2021/07/20 16:30:42;;;;;;;47.33;8.63;;;26.90;1.00;;;;;;5073482;28;20815;-81
2021/07/20 16:33:12;;;;;;;56.27;13.33;;;26.90;1.00;;;;;;5072977;28;20541;-82
2021/07/20 16:35:40;;;;;;;53.17;9.43;;;27.50;1.00;;;;;;5073422;28;20477;-82
2021/07/20 16:41:13;;;;;;;48.57;8.67;;;27.40;1.00;;;;;;5073425;28;20458;-81
2021/07/20 16:43:40;;;;;;;61.23;15.23;;;27.00;1.00;;;;;;5072246;28;20451;-81
2021/07/20 16:46:12;;;;;;;57.27;17.37;;;27.50;1.00;;;;;;5073336;28;20455;-81
2021/07/20 16:49:02;;;;;;;;;;;;;;;;;;;;;
2021/07/20 16:51:33;;;;;;;56.60;14.00;;;28.50;1.00;;;;;;5037149;28;20452;-82
2021/07/20 16:54:37;;;;;;;52.23;10.63;;;29.70;1.00;;;;;;5073279;28;20497;-82
2021/07/20 16:57:45;;;;;;;;;;;;;;;;;;;;;
2021/07/20 17:00:15;;;;;;;61.63;13.50;;;28.10;1.00;;;;;;5053558;28;20429;-82
2021/07/20 17:02:46;;;;;;;54.27;9.80;;;27.50;1.00;;;;;;5073069;28;20450;-82
2021/07/20 17:05:14;;;;;;;49.63;8.43;;;27.10;1.00;;;;;;5073222;28;20451;-81
2021/07/20 17:07:42;;;;;;;54.13;12.43;;;26.80;1.00;;;;;;5058247;28;20467;-82
2021/07/20 17:10:13;;;;;;;66.07;11.20;;;27.00;1.00;;;;;;5052632;28;20422;-83
2021/07/20 17:12:42;;;;;;;54.20;10.70;;;26.90;1.00;;;;;;5071818;28;20525;-83
2021/07/20 17:15:11;;;;;;;52.80;11.53;;;26.90;1.00;;;;;;5071216;28;20493;-81
2021/07/20 17:17:39;;;;;;;55.73;11.93;;;26.70;1.00;;;;;;5072543;28;20541;-82
2021/07/20 17:20:09;;;;;;;52.07;10.30;;;26.60;1.00;;;;;;5072661;28;20490;-81
2021/07/20 17:22:37;;;;;;;47.00;8.23;;;26.90;1.00;;;;;;5072909;28;20455;-82
2021/07/20 17:25:07;;;;;;;50.10;12.30;;;26.80;1.00;;;;;;5073048;28;20845;-82
2021/07/20 17:27:35;;;;;;;56.70;8.60;;;26.50;1.00;;;;;;5072788;28;20890;-82
2021/07/20 17:30:04;;;;;;;50.77;7.60;;;26.40;1.00;;;;;;5071372;28;20458;-81
2021/07/20 17:32:33;;;;;;;50.13;7.80;;;26.50;1.00;;;;;;5072507;28;20576;-82
2021/07/20 17:35:09;;;;;;;48.77;8.80;;;26.50;1.00;;;;;;5072716;28;20463;-84
2021/07/20 17:37:37;;;;;;;48.93;8.43;;;26.50;1.00;;;;;;5072768;28;20456;-82
2021/07/20 17:40:13;;;;;;;49.03;11.40;;;26.80;1.00;;;;;;5072586;28;20529;-83
2021/07/20 17:42:45;;;;;;;48.70;9.30;;;26.40;1.00;;;;;;5069172;28;20447;-81
2021/07/20 17:45:13;;;;;;;49.73;8.17;;;26.30;1.00;;;;;;5070068;28;20437;-81
2021/07/20 17:47:43;;;;;;;48.77;8.03;;;26.10;1.00;;;;;;5071375;28;20545;-82
2021/07/20 17:50:14;;;;;;;55.93;11.20;;;25.70;1.00;;;;;;5071074;28;20479;-81
2021/07/20 17:52:44;;;;;;;49.47;8.13;;;25.20;1.00;;;;;;5071131;28;20486;-82
2021/07/20 17:55:13;;;;;;;44.77;11.57;;;24.70;1.00;;;;;;5071236;28;20463;-82
2021/07/20 17:57:42;;;;;;;45.67;8.40;;;23.80;1.00;;;;;;5071200;28;20556;-81
2021/07/20 18:00:12;;;;;;;61.50;9.40;;;24.00;1.00;;;;;;5069968;28;20454;-80
2021/07/20 18:02:39;;;;;;;52.00;9.23;;;24.00;1.00;;;;;;5074409;28;20454;-81
2021/07/20 18:05:07;;;;;;;56.70;9.00;;;23.50;1.00;;;;;;5075141;28;20454;-80
2021/07/20 18:07:35;;;;;;;52.00;10.30;;;22.80;1.00;;;;;;5075243;28;20564;-84
2021/07/20 18:10:04;;;;;;;49.00;9.07;;;22.50;1.00;;;;;;5074745;28;20490;-82
2021/07/20 18:12:31;;;;;;;47.80;8.57;;;22.00;1.00;;;;;;5075065;28;20478;-81
2021/07/20 18:14:58;;;;;;;52.10;9.60;;;21.80;1.70;;;;;;5073802;28;20500;-81
2021/07/20 18:17:25;;;;;;;48.83;8.97;;;21.70;3.00;;;;;;5075432;28;20460;-84
2021/07/20 18:19:52;;;;;;;43.97;7.90;;;21.50;4.10;;;;;;5076044;28;20503;-82
2021/07/20 18:22:19;;;;;;;43.20;7.77;;;21.40;5.10;;;;;;5076141;28;20553;-80
2021/07/20 18:24:47;;;;;;;47.10;7.50;;;21.20;5.40;;;;;;5076219;28;20477;-85
2021/07/20 18:27:14;;;;;;;43.33;6.70;;;21.10;6.20;;;;;;5075997;28;20462;-81
2021/07/20 18:29:41;;;;;;;42.97;7.40;;;21.00;7.00;;;;;;5074767;28;20796;-81
2021/07/20 18:32:08;;;;;;;44.17;8.10;;;20.80;9.00;;;;;;5075894;28;20482;-80
2021/07/20 18:34:35;;;;;;;41.87;7.23;;;20.70;9.90;;;;;;5076212;28;20493;-81
2021/07/20 18:37:02;;;;;;;45.40;7.07;;;20.50;11.10;;;;;;5075862;28;20537;-81
2021/07/20 18:39:31;;;;;;;39.83;7.77;;;20.40;11.30;;;;;;5075805;28;20450;-80
2021/07/20 18:42:01;;;;;;;45.57;8.77;;;20.20;13.10;;;;;;5075797;28;20460;-80
2021/07/20 18:44:30;;;;;;;43.20;8.53;;;20.10;12.50;;;;;;5074743;28;20454;-81
2021/07/20 18:46:57;;;;;;;43.37;7.90;;;20.00;13.00;;;;;;5075552;28;20479;-80
2021/07/20 18:49:24;;;;;;;40.47;8.13;;;20.00;13.80;;;;;;5075666;28;20453;-81
2021/07/20 18:51:51;;;;;;;43.57;8.37;;;19.70;14.30;;;;;;5075224;28;21037;-81
2021/07/20 18:54:19;;;;;;;35.63;6.60;;;19.60;15.80;;;;;;5075653;28;20454;-82
2021/07/20 18:56:46;;;;;;;35.80;7.37;;;19.80;14.10;;;;;;5075501;28;20531;-81
2021/07/20 18:59:15;;;;;;;37.80;7.53;;;19.60;15.10;;;;;;5074312;28;20478;-81
2021/07/20 19:01:43;;;;;;;35.43;6.20;;;19.30;15.40;;;;;;5075472;28;20455;-81
2021/07/20 19:04:10;;;;;;;37.17;6.67;;;19.10;17.30;;;;;;5075068;28;20491;-81
2021/07/20 19:06:37;;;;;;;36.80;8.00;;;19.20;17.00;;;;;;5075265;28;20993;-81
2021/07/20 19:09:04;;;;;;;34.10;7.03;;;19.40;16.60;;;;;;5075271;28;20608;-81
2021/07/20 19:11:31;;;;;;;35.40;7.20;;;19.30;17.30;;;;;;5075269;28;20455;-81
2021/07/20 19:13:58;;;;;;;37.83;8.07;;;18.80;18.20;;;;;;5073442;28;20547;-82
2021/07/20 19:16:26;;;;;;;38.47;7.80;;;18.60;19.20;;;;;;5075154;28;20486;-81
2021/07/20 19:18:53;;;;;;;37.97;6.63;;;18.20;22.10;;;;;;5075086;28;20550;-80
2021/07/20 19:21:20;;;;;;;36.03;7.13;;;17.80;23.90;;;;;;5075045;28;20916;-81
2021/07/20 19:23:47;;;;;;;34.40;8.43;;;17.60;25.30;;;;;;5075257;28;20871;-82
2021/07/20 19:26:14;;;;;;;35.03;8.40;;;17.40;26.70;;;;;;5074878;28;20462;-80
2021/07/20 19:28:41;;;;;;;33.37;8.03;;;17.10;27.60;;;;;;5073704;28;20533;-81
2021/07/20 19:31:08;;;;;;;32.40;7.70;;;17.00;28.70;;;;;;5075140;28;20486;-80
2021/07/20 19:33:36;;;;;;;34.23;7.87;;;16.80;30.00;;;;;;5074655;28;20486;-80
2021/07/20 19:36:03;;;;;;;31.57;7.93;;;16.70;31.80;;;;;;5074730;28;20520;-83
2021/07/20 19:38:32;;;;;;;31.67;7.40;;;16.50;32.10;;;;;;5039697;28;20880;-82
2021/07/20 19:41:20;;;;;;;;;;;;;;;;;;;;;
2021/07/20 19:43:47;;;;;;;31.50;8.13;;;16.50;32.10;;;;;;5072764;28;20446;-83
2021/07/20 19:46:14;;;;;;;32.20;8.03;;;16.30;34.10;;;;;;5073846;28;20450;-82
2021/07/20 19:48:43;;;;;;;31.47;8.67;;;16.20;34.30;;;;;;5074421;28;20524;-82
2021/07/20 19:51:10;;;;;;;31.60;7.47;;;16.00;34.70;;;;;;5074283;28;20473;-83
2021/07/20 19:53:38;;;;;;;29.70;7.50;;;16.00;36.60;;;;;;5074311;28;20478;-83
2021/07/20 19:56:08;;;;;;;39.60;8.80;;;15.90;38.10;;;;;;5074425;28;20545;-83
2021/07/20 19:58:35;;;;;;;36.37;8.27;;;15.70;40.40;;;;;;5073216;28;20478;-84
2021/07/20 20:01:02;;;;;;;29.23;8.07;;;15.70;41.50;;;;;;5074299;28;20869;-84
